createdAt,value
2022-11-16T00:01:14.933Z,15.27
2022-11-16T00:03:42.058Z,14.32
2022-11-16T00:06:09.693Z,14.02
2022-11-16T00:08:38.989Z,14.63
2022-11-16T00:11:06.820Z,14.27
2022-11-16T00:13:34.467Z,14.10
2022-11-16T00:16:01.674Z,13.55
2022-11-16T00:18:29.020Z,14.75
2022-11-16T00:20:55.796Z,15.65
2022-11-16T00:23:22.885Z,13.82
2022-11-16T00:25:50.145Z,14.18
2022-11-16T00:28:17.182Z,15.07
2022-11-16T00:30:43.826Z,13.95
2022-11-16T00:33:15.657Z,14.32
2022-11-16T00:35:42.414Z,14.27
2022-11-16T00:38:09.155Z,14.73
2022-11-16T00:40:35.745Z,15.63
2022-11-16T00:43:02.368Z,15.73
2022-11-16T00:45:29.042Z,14.73
2022-11-16T00:48:00.294Z,16.40
2022-11-16T00:50:27.702Z,15.85
2022-11-16T00:52:54.605Z,15.85
2022-11-16T00:55:21.406Z,15.35
2022-11-16T00:57:48.836Z,15.85
2022-11-16T01:00:17.655Z,15.82
2022-11-16T01:02:44.938Z,16.35
2022-11-16T01:05:12.033Z,16.10
2022-11-16T01:07:40.083Z,16.65
2022-11-16T01:10:10.836Z,16.80
2022-11-16T01:12:38.381Z,16.83
2022-11-16T01:15:08.977Z,16.73
2022-11-16T01:17:36.813Z,18.33
2022-11-16T01:20:06.013Z,18.35
2022-11-16T01:22:35.338Z,17.70
2022-11-16T01:25:02.144Z,18.50
2022-11-16T01:27:29.030Z,18.33
2022-11-16T01:29:57.283Z,19.17
2022-11-16T01:32:23.925Z,18.75
2022-11-16T01:34:50.875Z,18.90
2022-11-16T01:37:27.851Z,19.60
2022-11-16T01:39:54.441Z,20.23
2022-11-16T01:42:24.286Z,19.98
2022-11-16T01:45:04.882Z,19.75
2022-11-16T01:47:32.570Z,20.05
2022-11-16T01:50:12.401Z,19.98
2022-11-16T01:52:51.510Z,19.90
2022-11-16T01:55:35.576Z,21.88
2022-11-16T01:58:41.162Z,18.98
2022-11-16T02:01:31.059Z,22.77
2022-11-16T02:04:00.661Z,20.63
2022-11-16T02:07:16.082Z,21.25
2022-11-16T02:10:10.139Z,23.60
2022-11-16T02:13:11.521Z,22.30
2022-11-16T02:15:50.241Z,24.83
2022-11-16T02:18:35.611Z,24.13
2022-11-16T02:21:20.417Z,25.85
2022-11-16T02:24:11.657Z,25.95
2022-11-16T02:26:55.254Z,23.98
2022-11-16T02:29:45.647Z,26.75
2022-11-16T02:32:22.453Z,26.55
2022-11-16T02:34:57.265Z,27.30
2022-11-16T02:37:26.987Z,29.15
2022-11-16T02:39:57.493Z,29.23
2022-11-16T02:42:40.354Z,28.90
2022-11-16T02:45:09.976Z,31.05
2022-11-16T02:47:38.196Z,31.42
2022-11-16T02:50:10.698Z,30.52
2022-11-16T02:52:38.692Z,32.13
2022-11-16T02:55:08.798Z,31.15
2022-11-16T02:57:46.008Z,30.80
2022-11-16T03:00:51.926Z,33.90
2022-11-16T03:03:38.569Z,30.85
2022-11-16T03:06:18.795Z,31.33
2022-11-16T03:09:00.422Z,31.77
2022-11-16T03:11:50.399Z,28.92
2022-11-16T03:16:51.083Z,30.35
2022-11-16T03:19:45.175Z,29.08
2022-11-16T03:22:26.224Z,28.98
2022-11-16T03:24:53.484Z,30.70
2022-11-16T03:27:41.328Z,29.23
2022-11-16T03:30:12.760Z,27.90
2022-11-16T03:32:57.811Z,29.42
2022-11-16T03:35:46.644Z,29.95
2022-11-16T03:38:15.873Z,27.30
2022-11-16T03:40:47.305Z,29.70
2022-11-16T03:43:15.895Z,30.52
2022-11-16T03:45:43.140Z,29.77
2022-11-16T03:48:10.864Z,30.92
2022-11-16T03:50:37.637Z,29.50
2022-11-16T03:53:04.242Z,31.42
2022-11-16T03:55:31.517Z,29.23
2022-11-16T03:57:58.726Z,27.90
2022-11-16T04:00:25.373Z,30.10
2022-11-16T04:02:53.140Z,29.27
2022-11-16T04:05:40.167Z,30.63
2022-11-16T04:08:33.381Z,28.65
2022-11-16T04:11:18.732Z,26.08
2022-11-16T04:14:09.041Z,29.73
2022-11-16T04:16:55.429Z,29.42
2022-11-16T04:19:40.549Z,30.30
2022-11-16T04:22:44.562Z,26.83
2022-11-16T04:25:27.240Z,26.77
2022-11-16T07:28:48.613Z,35.72
2022-11-16T07:31:18.819Z,37.20
2022-11-16T07:33:46.121Z,42.47
2022-11-16T07:36:35.752Z,41.63
2022-11-16T07:39:03.395Z,43.08
2022-11-16T07:41:30.399Z,38.28
2022-11-16T07:44:12.377Z,44.85
2022-11-16T07:46:48.933Z,41.15
2022-11-16T07:49:18.845Z,38.13
2022-11-16T07:51:53.181Z,38.13
2022-11-16T07:54:42.819Z,37.28
2022-11-16T07:57:09.543Z,36.08
2022-11-16T07:59:36.276Z,35.70
2022-11-16T08:02:09.989Z,36.00
2022-11-16T08:04:38.756Z,37.95
2022-11-16T08:07:05.960Z,36.17
2022-11-16T08:09:38.037Z,33.20
2022-11-16T08:12:04.962Z,34.95
2022-11-16T08:14:32.684Z,36.92
2022-11-16T08:16:59.431Z,38.97
2022-11-16T08:19:26.383Z,35.90
2022-11-16T08:21:53.028Z,37.58
2022-11-16T08:24:20.070Z,37.50
2022-11-16T08:26:46.997Z,39.33
2022-11-16T08:29:15.824Z,39.78
2022-11-16T08:31:47.680Z,42.60
2022-11-16T08:34:18.341Z,41.22
2022-11-16T08:36:48.967Z,39.20
2022-11-16T08:39:17.327Z,37.28
2022-11-16T08:41:44.355Z,36.58
2022-11-16T08:44:11.700Z,36.83
2022-11-16T08:46:41.415Z,34.88
2022-11-16T08:49:23.925Z,34.22
2022-11-16T08:51:50.645Z,30.63
2022-11-16T08:54:18.687Z,32.78
2022-11-16T08:56:45.378Z,32.35
2022-11-16T08:59:12.541Z,31.35
2022-11-16T09:01:44.546Z,30.42
2022-11-16T09:04:11.700Z,30.23
2022-11-16T09:06:38.483Z,30.40
2022-11-16T09:09:05.149Z,29.52
2022-11-16T09:11:31.815Z,32.45
2022-11-16T09:13:59.264Z,30.20
2022-11-16T09:16:27.799Z,31.50
2022-11-16T09:18:57.525Z,28.42
2022-11-16T09:21:26.710Z,31.83
2022-11-16T09:23:57.432Z,28.48
2022-11-16T09:26:25.103Z,29.52
2022-11-16T09:28:59.923Z,29.13
2022-11-16T09:31:28.609Z,27.98
2022-11-16T09:33:58.616Z,29.90
2022-11-16T09:36:27.627Z,28.55
2022-11-16T09:39:23.745Z,28.88
2022-11-16T09:42:02.964Z,27.90
2022-11-16T09:44:50.993Z,27.75
2022-11-16T09:47:49.460Z,26.52
2022-11-16T09:50:44.259Z,29.27
2022-11-16T09:53:27.542Z,30.13
2022-11-16T09:56:04.201Z,28.67
2022-11-16T09:58:55.491Z,27.05
2022-11-16T10:01:25.002Z,27.88
2022-11-16T10:03:58.665Z,28.77
2022-11-16T10:06:57.554Z,28.10
2022-11-16T10:09:25.696Z,30.02
2022-11-16T10:12:06.478Z,32.92
2022-11-16T10:15:04.742Z,32.42
2022-11-16T10:18:01.648Z,33.38
2022-11-16T10:20:36.789Z,31.25
2022-11-16T10:23:35.661Z,31.73
2022-11-16T10:26:27.659Z,29.95
2022-11-16T10:29:12.688Z,29.48
2022-11-16T10:31:56.216Z,33.05
2022-11-16T10:34:37.046Z,32.83
2022-11-16T10:37:08.382Z,34.13
2022-11-16T10:39:40.261Z,34.45
2022-11-16T10:42:13.307Z,32.42
2022-11-16T10:44:44.507Z,33.22
2022-11-16T10:47:23.556Z,32.40
2022-11-16T10:49:58.256Z,33.85
2022-11-16T10:52:25.255Z,33.50
2022-11-16T10:54:52.162Z,31.13
2022-11-16T10:57:19.419Z,33.10
2022-11-16T10:59:48.873Z,34.28
2022-11-16T11:02:33.523Z,34.33
2022-11-16T11:05:16.281Z,33.92
2022-11-16T11:07:49.377Z,32.85
2022-11-16T11:10:28.284Z,36.45
2022-11-16T11:13:05.260Z,33.08
2022-11-16T11:18:25.439Z,35.08
2022-11-16T11:21:06.266Z,33.38
2022-11-16T11:23:54.161Z,37.88
2022-11-16T11:26:37.382Z,36.80
2022-11-16T11:29:23.917Z,36.58
2022-11-16T11:31:57.925Z,39.25
2022-11-16T11:34:47.896Z,37.50
2022-11-16T11:37:32.426Z,38.75
2022-11-16T11:40:32.703Z,39.35
2022-11-16T11:43:05.107Z,41.58
2022-11-16T11:46:05.022Z,36.72
2022-11-16T11:48:59.906Z,42.70
2022-11-16T11:51:36.072Z,40.75
2022-11-16T11:54:04.773Z,43.97
2022-11-16T11:56:34.046Z,46.47
2022-11-16T11:59:03.046Z,48.22
2022-11-16T12:02:00.049Z,45.30
2022-11-16T12:04:55.303Z,39.33
2022-11-16T12:07:48.916Z,45.05
2022-11-16T12:10:36.811Z,49.63
2022-11-16T12:13:45.353Z,48.03
2022-11-16T12:16:20.777Z,46.38
2022-11-16T12:18:53.001Z,43.88
2022-11-16T12:21:53.120Z,47.03
2022-11-16T12:24:47.840Z,49.30
2022-11-16T12:27:51.795Z,45.85
2022-11-16T12:30:21.709Z,47.92
2022-11-16T12:32:57.479Z,49.97
2022-11-16T12:35:32.844Z,51.17
2022-11-16T12:37:59.478Z,50.33
2022-11-16T12:40:50.199Z,48.05
2022-11-16T12:43:39.881Z,47.88
2022-11-16T12:46:32.073Z,45.53
2022-11-16T12:49:24.190Z,44.05
2022-11-16T12:52:04.924Z,50.67
2022-11-16T12:55:18.953Z,52.67
2022-11-16T12:57:56.764Z,45.38
2022-11-16T13:00:23.528Z,52.53
2022-11-16T13:03:19.534Z,57.30
2022-11-16T13:06:06.824Z,52.40
2022-11-16T13:08:45.487Z,54.28
2022-11-16T13:11:15.956Z,49.58
2022-11-16T13:13:51.522Z,43.03
2022-11-16T13:16:20.944Z,45.33
2022-11-16T13:18:52.232Z,47.83
2022-11-16T13:21:40.514Z,50.72
2022-11-16T13:24:26.865Z,40.38
2022-11-16T13:27:23.142Z,44.28
2022-11-16T13:30:00.787Z,47.78
2022-11-16T13:32:41.856Z,45.20
2022-11-16T13:35:15.439Z,45.63
2022-11-16T13:37:47.258Z,42.80
2022-11-16T13:40:29.341Z,47.20
2022-11-16T13:43:06.037Z,45.45
2022-11-16T13:45:54.243Z,42.78
2022-11-16T13:48:33.739Z,49.10
2022-11-16T13:51:15.889Z,47.22
2022-11-16T13:56:50.865Z,41.25
2022-11-16T13:59:25.199Z,42.65
2022-11-16T14:01:57.603Z,47.30
2022-11-16T14:04:42.925Z,47.90
2022-11-16T14:07:29.923Z,43.47
2022-11-16T14:09:57.209Z,46.58
2022-11-16T14:12:38.955Z,43.35
2022-11-16T14:15:15.010Z,43.40
2022-11-16T14:18:22.526Z,40.60
2022-11-16T14:20:57.137Z,40.22
2022-11-16T14:23:45.424Z,39.47
2022-11-16T14:26:49.014Z,42.92
2022-11-16T14:29:42.436Z,39.88
2022-11-16T14:32:21.368Z,40.85
2022-11-16T14:34:51.031Z,41.55
2022-11-16T14:37:28.232Z,42.50
2022-11-16T14:40:00.872Z,41.20
2022-11-16T14:42:38.190Z,41.80
2022-11-16T14:45:32.801Z,39.13
2022-11-16T14:48:03.613Z,43.10
2022-11-16T14:50:35.404Z,41.63
2022-11-16T14:53:07.502Z,41.67
2022-11-16T14:55:42.696Z,43.42
2022-11-16T14:58:23.381Z,40.85
2022-11-16T15:00:54.023Z,36.30
2022-11-16T15:03:23.613Z,40.83
2022-11-16T15:05:50.591Z,37.80
2022-11-16T15:08:26.211Z,37.65
2022-11-16T15:10:53.106Z,37.45
2022-11-16T15:13:24.855Z,39.83
2022-11-16T15:16:19.142Z,37.58
2022-11-16T15:18:59.876Z,36.05
